createdAt,value
2018-12-23T00:00:06.833Z,79.44
2018-12-23T00:00:45.484Z,79.10
2018-12-23T00:01:22.477Z,78.98
2018-12-23T00:02:00.245Z,80.36
2018-12-23T00:02:38.453Z,80.21
2018-12-23T00:03:15.367Z,79.44
2018-12-23T00:03:52.423Z,79.10
2018-12-23T00:04:29.256Z,80.35
2018-12-23T00:05:11.478Z,79.77
2018-12-23T00:05:46.251Z,79.55
2018-12-23T00:06:23.958Z,79.46
2018-12-23T00:07:00.892Z,79.42
2018-12-23T00:07:38.027Z,80.17
2018-12-23T00:08:15.725Z,80.12
2018-12-23T00:08:52.687Z,79.98
2018-12-23T00:09:30.801Z,78.78
2018-12-23T00:10:08.573Z,79.38
2018-12-23T00:10:45.577Z,79.57
2018-12-23T00:11:23.837Z,80.11
2018-12-23T00:12:02.745Z,79.52
2018-12-23T00:12:41.790Z,79.99
2018-12-23T00:13:19.535Z,78.75
2018-12-23T00:13:58.214Z,78.91
2018-12-23T00:14:35.297Z,79.11
2018-12-23T00:15:14.813Z,79.29
2018-12-23T00:15:53.132Z,78.79
2018-12-23T00:16:30.246Z,79.47
2018-12-23T00:17:07.120Z,79.50
2018-12-23T00:17:44.037Z,78.97
2018-12-23T00:18:21.106Z,78.25
2018-12-23T00:18:58.038Z,78.60
2018-12-23T00:19:36.171Z,78.59
2018-12-23T00:20:14.534Z,78.00
2018-12-23T00:20:51.823Z,79.28
2018-12-23T00:21:28.858Z,78.13
2018-12-23T00:22:06.173Z,78.39
2018-12-23T00:22:43.988Z,78.16
2018-12-23T00:23:20.989Z,77.60
2018-12-23T00:23:58.102Z,78.77
2018-12-23T00:24:35.024Z,78.06
2018-12-23T00:25:13.205Z,78.24
2018-12-23T00:25:51.249Z,77.74
2018-12-23T00:26:28.267Z,77.01
2018-12-23T00:27:06.906Z,77.17
2018-12-23T00:27:43.937Z,77.94
2018-12-23T00:28:21.793Z,77.19
2018-12-23T00:28:59.709Z,77.38
2018-12-23T00:29:36.914Z,77.81
2018-12-23T00:30:15.083Z,76.82
2018-12-23T00:30:51.936Z,77.38
2018-12-23T00:31:28.978Z,76.55
2018-12-23T00:32:05.908Z,77.52
2018-12-23T00:32:42.696Z,76.43
2018-12-23T00:33:20.465Z,76.26
2018-12-23T00:33:59.243Z,76.22
2018-12-23T00:34:36.060Z,75.66
2018-12-23T00:35:20.238Z,76.50
2018-12-23T00:35:54.116Z,76.59
2018-12-23T00:36:32.152Z,75.75
2018-12-23T00:37:09.201Z,76.25
2018-12-23T00:37:47.302Z,75.79
2018-12-23T00:38:25.283Z,75.16
2018-12-23T00:39:02.200Z,75.34
2018-12-23T00:39:40.295Z,75.39
2018-12-23T00:40:20.072Z,74.99
2018-12-23T00:40:58.000Z,75.13
2018-12-23T00:41:37.510Z,74.37
2018-12-23T00:42:15.658Z,74.78
2018-12-23T00:42:56.682Z,75.17
2018-12-23T00:43:33.601Z,74.48
2018-12-23T00:44:10.400Z,73.97
2018-12-23T00:44:47.569Z,74.76
2018-12-23T00:45:24.324Z,74.65
2018-12-23T00:46:01.304Z,74.00
2018-12-23T00:46:41.503Z,74.73
2018-12-23T00:47:18.511Z,74.27
2018-12-23T00:47:56.604Z,73.52
2018-12-23T00:48:34.815Z,73.73
2018-12-23T00:49:12.800Z,73.41
2018-12-23T00:49:52.914Z,74.49
2018-12-23T00:50:35.399Z,73.13
2018-12-23T00:51:15.130Z,73.82
2018-12-23T00:51:56.836Z,73.69
2018-12-23T00:52:41.086Z,73.15
2018-12-23T00:53:21.760Z,73.76
2018-12-23T00:54:02.287Z,72.97
2018-12-23T00:54:44.944Z,73.03
2018-12-23T00:55:27.968Z,73.37
2018-12-23T00:56:06.828Z,72.98
2018-12-23T00:56:47.260Z,73.59
2018-12-23T00:57:30.256Z,73.49
2018-12-23T00:58:14.173Z,72.69
2018-12-23T00:58:52.367Z,72.60
2018-12-23T00:59:31.300Z,72.75
2018-12-23T01:00:14.577Z,72.74
2018-12-23T01:01:00.409Z,71.84
2018-12-23T01:04:15.871Z,70.94
2018-12-23T01:04:55.618Z,70.94
2018-12-23T01:05:32.350Z,70.74
2018-12-23T01:06:09.132Z,70.57
2018-12-23T01:07:24.125Z,70.36
2018-12-23T01:08:10.941Z,70.07
2018-12-23T01:08:47.552Z,69.82
2018-12-23T01:09:24.262Z,69.36
2018-12-23T01:12:54.017Z,69.01
2018-12-23T01:13:30.786Z,68.52
2018-12-23T01:14:45.864Z,68.50
2018-12-23T01:15:22.585Z,68.50
2018-12-23T01:16:37.568Z,68.04
2018-12-23T01:18:50.293Z,67.91
2018-12-23T01:19:27.048Z,67.84
2018-12-23T01:20:04.411Z,67.81
2018-12-23T01:21:02.355Z,67.66
2018-12-23T01:21:57.239Z,67.66
2018-12-23T01:23:49.872Z,67.42
2018-12-23T01:25:04.752Z,67.42
2018-12-23T01:27:06.913Z,67.65
2018-12-23T01:29:26.867Z,67.70
2018-12-23T01:30:13.955Z,67.14
2018-12-23T01:32:45.363Z,67.25
2018-12-23T01:33:34.799Z,67.47
2018-12-23T01:34:21.782Z,67.66
2018-12-23T01:35:08.344Z,67.48
2018-12-23T01:37:41.408Z,68.20
2018-12-23T01:38:46.325Z,68.21
2018-12-23T01:39:33.085Z,68.20
2018-12-23T01:40:19.508Z,68.52
2018-12-23T01:42:39.583Z,69.03
2018-12-23T01:43:26.446Z,68.37
2018-12-23T01:45:41.289Z,67.99
2018-12-23T01:46:46.261Z,68.75
2018-12-23T01:47:51.157Z,68.25
2018-12-23T01:48:59.228Z,68.52
2018-12-23T01:49:46.221Z,68.16
2018-12-23T01:52:01.852Z,67.97
2018-12-23T01:52:49.086Z,67.43
2018-12-23T01:55:02.739Z,67.39
2018-12-23T01:56:07.557Z,67.23
2018-12-23T01:56:54.560Z,66.88
2018-12-23T01:59:25.709Z,66.91
2018-12-23T02:00:22.511Z,66.67
2018-12-23T02:01:27.514Z,66.33
2018-12-23T02:02:32.409Z,66.81
2018-12-23T02:05:03.639Z,65.88
2018-12-23T02:06:17.275Z,65.88
2018-12-23T02:07:22.146Z,65.85
2018-12-23T02:08:35.651Z,65.83
2018-12-23T02:09:40.586Z,65.73
2018-12-23T02:10:45.645Z,65.99
2018-12-23T02:11:50.641Z,66.02
2018-12-23T02:14:02.871Z,65.16
2018-12-23T02:15:09.007Z,65.32
2018-12-23T02:16:13.893Z,65.87
2018-12-23T02:17:29.107Z,65.43
2018-12-23T02:20:02.068Z,65.02
2018-12-23T02:20:49.452Z,65.10
2018-12-23T02:23:20.623Z,65.10
2018-12-23T02:24:25.510Z,65.18
2018-12-23T02:25:30.486Z,65.02
2018-12-23T02:26:35.548Z,65.00
2018-12-23T02:27:40.385Z,65.37
2018-12-23T02:30:11.548Z,65.03
2018-12-23T02:31:18.336Z,64.89
2018-12-23T02:32:23.320Z,64.77
2018-12-23T02:34:28.491Z,64.66
2018-12-23T02:35:34.880Z,64.37
2018-12-23T02:36:41.505Z,64.24
2018-12-23T02:37:36.440Z,63.96
2018-12-23T02:38:13.129Z,63.42
2018-12-23T02:38:49.915Z,63.22
2018-12-23T02:39:46.487Z,63.28
2018-12-23T02:40:23.353Z,63.42
2018-12-23T02:42:19.854Z,63.70
2018-12-23T02:43:34.745Z,63.43
2018-12-23T02:44:11.286Z,63.33
2018-12-23T02:46:14.648Z,63.54
2018-12-23T02:47:01.190Z,63.39
2018-12-23T02:48:06.104Z,63.31
2018-12-23T02:52:03.939Z,62.98
2018-12-23T02:52:40.451Z,62.96
2018-12-23T02:53:46.822Z,62.41
2018-12-23T02:55:58.347Z,61.87
2018-12-23T02:57:11.808Z,62.10
2018-12-23T02:58:16.663Z,62.16
2018-12-23T02:59:03.343Z,62.22
2018-12-23T02:59:39.872Z,61.77
2018-12-23T03:00:46.323Z,61.41
2018-12-23T03:01:22.935Z,61.30
2018-12-23T03:01:59.640Z,61.35
2018-12-23T03:02:36.223Z,61.38
2018-12-23T03:03:12.796Z,61.44
2018-12-23T03:04:27.767Z,61.38
2018-12-23T03:05:34.396Z,61.16
2018-12-23T03:06:39.305Z,61.27
2018-12-23T03:07:15.892Z,60.96
2018-12-23T03:08:06.800Z,61.01
2018-12-23T03:09:07.834Z,60.93
2018-12-23T03:09:44.626Z,60.65
2018-12-23T03:10:21.307Z,60.53
2018-12-23T03:10:57.901Z,60.62
2018-12-23T03:11:34.683Z,60.59
2018-12-23T03:12:11.282Z,60.31
2018-12-23T03:14:14.575Z,60.03
2018-12-23T03:15:01.255Z,59.89
2018-12-23T03:15:56.152Z,59.78
2018-12-23T03:16:32.756Z,59.73
2018-12-23T03:17:09.508Z,59.83
2018-12-23T03:17:46.276Z,59.90
2018-12-23T03:18:22.767Z,59.82
2018-12-23T03:18:59.605Z,59.95
2018-12-23T03:19:36.180Z,59.64
2018-12-23T03:20:51.191Z,59.39
2018-12-23T03:21:57.408Z,59.49
2018-12-23T03:23:04.261Z,59.45
2018-12-23T03:23:40.901Z,59.01
2018-12-23T03:24:20.496Z,58.96
2018-12-23T03:24:57.026Z,59.11
2018-12-23T03:25:33.889Z,59.10
2018-12-23T03:29:00.225Z,59.05
2018-12-23T03:31:40.354Z,59.22
2018-12-23T03:34:00.357Z,58.84
2018-12-23T03:34:36.869Z,58.43
2018-12-23T03:35:13.710Z,58.23
2018-12-23T03:35:50.232Z,58.25
2018-12-23T03:36:26.867Z,58.11
2018-12-23T03:37:03.479Z,58.07
2018-12-23T03:39:23.500Z,58.02
2018-12-23T03:39:59.967Z,57.79
2018-12-23T03:40:36.700Z,57.90
2018-12-23T03:42:46.824Z,57.71
2018-12-23T03:46:12.265Z,57.19
2018-12-23T03:48:14.051Z,57.47
2018-12-23T03:48:53.946Z,57.59
2018-12-23T03:49:30.483Z,57.69
2018-12-23T03:50:07.492Z,57.58
2018-12-23T03:52:27.190Z,57.71
2018-12-23T03:53:03.714Z,57.66
2018-12-23T03:54:18.664Z,57.32
2018-12-23T03:56:51.648Z,56.75
2018-12-23T03:57:31.389Z,56.70
2018-12-23T03:58:10.967Z,56.72
2018-12-23T03:58:47.629Z,56.79
2018-12-23T03:59:55.456Z,56.96
2018-12-23T04:00:34.971Z,56.77
2018-12-23T04:01:31.373Z,56.38
2018-12-23T04:02:08.088Z,56.16
2018-12-23T04:03:23.032Z,56.30
2018-12-23T04:04:09.761Z,56.24
2018-12-23T04:04:46.538Z,55.81
2018-12-23T04:05:23.299Z,55.70
2018-12-23T04:06:00.012Z,55.58
2018-12-23T04:06:36.699Z,55.50
2018-12-23T04:08:56.989Z,55.14
2018-12-23T04:10:11.862Z,55.06
2018-12-23T04:10:48.638Z,54.92
2018-12-23T04:12:03.473Z,54.59
2018-12-23T04:12:40.223Z,54.40
2018-12-23T04:14:41.994Z,53.76
2018-12-23T04:16:55.063Z,53.54
2018-12-23T04:17:31.660Z,53.86
2018-12-23T04:18:08.200Z,54.02
2018-12-23T04:20:28.328Z,54.17
2018-12-23T04:21:34.799Z,53.70
2018-12-23T04:22:11.587Z,52.99
2018-12-23T04:23:26.621Z,52.88
2018-12-23T04:24:03.231Z,53.11
2018-12-23T04:24:39.883Z,53.00
2018-12-23T04:25:16.516Z,53.04
2018-12-23T04:25:53.130Z,53.02
2018-12-23T04:26:29.859Z,53.14
2018-12-23T04:27:44.868Z,53.27
2018-12-23T04:28:21.595Z,52.91
2018-12-23T04:28:58.298Z,52.48
2018-12-23T04:30:13.190Z,52.52
2018-12-23T04:31:28.161Z,52.62
2018-12-23T04:32:23.141Z,52.57
2018-12-23T04:32:59.908Z,52.70
2018-12-23T04:33:36.581Z,52.89
2018-12-23T04:34:13.129Z,52.89
2018-12-23T04:34:50.101Z,53.00
2018-12-23T04:35:27.060Z,52.96
2018-12-23T04:37:40.046Z,53.14
2018-12-23T04:38:46.593Z,52.64
2018-12-23T04:39:23.167Z,52.29
2018-12-23T04:40:19.370Z,52.63
2018-12-23T04:41:34.200Z,52.88
2018-12-23T04:42:10.927Z,53.01
2018-12-23T04:43:25.878Z,52.88
2018-12-23T04:44:12.534Z,52.78
2018-12-23T04:44:49.114Z,53.37
2018-12-23T04:45:25.912Z,53.44
2018-12-23T04:46:40.778Z,53.67
2018-12-23T04:47:27.442Z,53.82
2018-12-23T04:48:42.402Z,54.09
2018-12-23T04:49:19.042Z,54.21
2018-12-23T04:49:55.834Z,54.12
2018-12-23T04:50:32.433Z,53.84
2018-12-23T04:51:09.172Z,53.80
2018-12-23T04:52:24.099Z,53.76
2018-12-23T04:53:00.823Z,53.88
2018-12-23T04:53:37.537Z,53.67
2018-12-23T04:54:14.115Z,53.63
2018-12-23T04:56:15.880Z,53.75
2018-12-23T04:58:07.586Z,54.07
2018-12-23T04:58:44.362Z,53.99
2018-12-23T05:01:04.155Z,54.63
2018-12-23T05:01:40.886Z,54.85
2018-12-23T05:02:46.603Z,55.18
2018-12-23T05:03:42.354Z,55.18
2018-12-23T05:04:41.596Z,55.34
2018-12-23T05:06:24.472Z,55.67
2018-12-23T05:07:21.032Z,55.49
2018-12-23T05:07:57.730Z,55.42
2018-12-23T05:09:12.671Z,55.94
2018-12-23T05:09:53.934Z,56.13
2018-12-23T05:11:08.901Z,56.50
2018-12-23T05:11:45.477Z,56.59
2018-12-23T05:12:24.328Z,56.66
2018-12-23T05:13:01.108Z,56.67
2018-12-23T05:13:38.661Z,56.21
2018-12-23T05:14:15.506Z,55.93
2018-12-23T05:14:52.293Z,55.88
2018-12-23T05:15:48.703Z,55.70
2018-12-23T05:16:25.446Z,55.68
2018-12-23T05:17:04.250Z,55.66
2018-12-23T05:18:19.178Z,55.76
2018-12-23T05:20:30.472Z,56.01
2018-12-23T05:21:07.129Z,56.41
2018-12-23T05:22:22.097Z,56.12
2018-12-23T05:22:58.810Z,56.20
2018-12-23T05:24:53.339Z,55.01
2018-12-23T05:25:29.990Z,54.92
2018-12-23T05:27:31.752Z,55.29
2018-12-23T05:28:08.337Z,54.88
2018-12-23T05:28:44.858Z,55.50
2018-12-23T05:31:08.040Z,55.96
2018-12-23T05:31:44.724Z,55.05
2018-12-23T05:32:21.308Z,55.31
2018-12-23T05:32:57.979Z,55.52
2018-12-23T05:33:34.504Z,55.09
2018-12-23T05:34:11.131Z,54.10
2018-12-23T05:36:03.011Z,53.56
2018-12-23T05:36:39.663Z,54.06
2018-12-23T05:37:54.445Z,54.37
2018-12-23T05:38:41.167Z,54.45
2018-12-23T05:39:27.932Z,54.10
2018-12-23T05:40:04.577Z,54.38
2018-12-23T05:41:19.509Z,54.47
2018-12-23T05:41:58.232Z,54.30
2018-12-23T05:42:53.160Z,53.15
2018-12-23T05:44:46.877Z,51.88
2018-12-23T05:45:53.425Z,52.13
2018-12-23T05:46:30.319Z,52.31
2018-12-23T05:47:07.113Z,51.73
2018-12-23T05:47:43.932Z,51.18
2018-12-23T05:48:58.856Z,50.92
2018-12-23T05:50:32.117Z,49.60
2018-12-23T05:51:08.745Z,49.69
2018-12-23T05:52:05.084Z,49.77
2018-12-23T05:54:26.473Z,50.43
2018-12-23T05:55:32.797Z,50.52
2018-12-23T05:56:09.593Z,49.69
2018-12-23T05:56:46.104Z,49.90
2018-12-23T05:57:22.844Z,49.48
2018-12-23T05:57:59.637Z,49.46
2018-12-23T05:58:38.885Z,49.36
2018-12-23T05:59:15.621Z,49.59
2018-12-23T06:00:30.610Z,50.05
2018-12-23T06:02:22.379Z,50.13
2018-12-23T06:02:59.013Z,50.91
2018-12-23T06:04:14.003Z,51.28
2018-12-23T06:06:07.104Z,49.49
2018-12-23T06:06:43.682Z,49.26
2018-12-23T06:07:20.417Z,49.61
2018-12-23T06:07:57.160Z,49.42
2018-12-23T06:09:12.143Z,49.33
2018-12-23T06:09:58.782Z,48.18
2018-12-23T06:10:35.418Z,48.57
2018-12-23T06:11:11.992Z,49.09
2018-12-23T06:12:27.006Z,49.51
2018-12-23T06:13:06.757Z,49.82
2018-12-23T06:13:43.393Z,50.53
2018-12-23T06:14:58.357Z,49.83
2018-12-23T06:15:45.048Z,49.65
2018-12-23T06:16:21.668Z,49.56
2018-12-23T06:17:36.539Z,50.31
2018-12-23T06:18:13.401Z,50.36
2018-12-23T06:20:36.685Z,48.54
2018-12-23T06:21:13.404Z,48.70
2018-12-23T06:22:28.312Z,49.29
2018-12-23T06:23:05.139Z,50.06
2018-12-23T06:23:41.636Z,50.86
2018-12-23T06:24:38.358Z,51.88
2018-12-23T06:25:34.705Z,52.08
2018-12-23T06:26:11.313Z,52.93
2018-12-23T06:27:26.246Z,53.32
2018-12-23T06:28:12.960Z,53.38
2018-12-23T06:28:49.751Z,53.07
2018-12-23T06:30:04.571Z,52.72
2018-12-23T06:30:52.893Z,53.59
2018-12-23T06:31:39.525Z,54.74
2018-12-23T06:32:16.123Z,54.86
2018-12-23T06:33:23.021Z,54.87
2018-12-23T06:34:09.669Z,55.10
2018-12-23T06:34:46.089Z,55.34
2018-12-23T06:35:22.712Z,55.45
2018-12-23T06:35:59.419Z,55.29
2018-12-23T06:36:55.934Z,54.54
2018-12-23T06:37:32.501Z,54.49
2018-12-23T06:38:47.427Z,54.60
2018-12-23T06:39:24.209Z,54.80
2018-12-23T06:40:00.996Z,54.86
2018-12-23T06:40:37.555Z,55.72
2018-12-23T06:41:34.180Z,55.08
2018-12-23T06:42:11.080Z,54.99
2018-12-23T06:43:26.202Z,54.89
2018-12-23T06:45:37.648Z,53.44
2018-12-23T06:46:14.366Z,53.46
2018-12-23T06:47:21.210Z,51.97
2018-12-23T06:48:10.656Z,51.01
2018-12-23T06:48:47.427Z,50.51
2018-12-23T06:49:23.949Z,50.55
2018-12-23T06:50:00.545Z,50.69
2018-12-23T06:50:37.415Z,51.04
2018-12-23T06:51:14.116Z,51.26
2018-12-23T06:52:10.790Z,51.26
2018-12-23T06:52:47.652Z,50.77
2018-12-23T06:53:34.227Z,50.92
2018-12-23T06:54:20.915Z,50.67
2018-12-23T06:55:35.941Z,50.76
2018-12-23T06:56:12.718Z,50.99
2018-12-23T06:56:49.424Z,50.45
2018-12-23T06:58:41.315Z,50.64
2018-12-23T06:59:18.072Z,50.70
2018-12-23T06:59:54.671Z,50.40
2018-12-23T07:00:31.582Z,50.00
2018-12-23T07:01:08.210Z,49.93
2018-12-23T07:04:54.593Z,50.01
2018-12-23T07:06:01.649Z,50.34
2018-12-23T07:06:38.401Z,49.92
2018-12-23T07:07:18.748Z,49.88
2018-12-23T07:10:27.908Z,50.22
2018-12-23T07:11:04.660Z,50.42
2018-12-23T07:12:19.586Z,50.37
2018-12-23T07:12:56.403Z,50.59
2018-12-23T07:13:33.024Z,50.25
2018-12-23T07:17:12.410Z,49.88
2018-12-23T07:18:19.245Z,48.74
2018-12-23T07:18:56.007Z,48.99
2018-12-23T07:19:32.696Z,49.17
2018-12-23T07:21:54.372Z,49.39
2018-12-23T07:22:31.017Z,49.69
2018-12-23T07:23:45.892Z,49.64
2018-12-23T07:24:22.701Z,49.61
2018-12-23T07:25:09.318Z,49.61
2018-12-23T07:25:46.094Z,49.46
2018-12-23T07:28:36.137Z,48.27
2018-12-23T07:29:12.834Z,48.43
2018-12-23T07:30:27.710Z,48.60
2018-12-23T07:31:07.060Z,48.59
2018-12-23T07:34:46.403Z,49.48
2018-12-23T07:36:01.345Z,50.32
2018-12-23T07:36:37.943Z,50.02
2018-12-23T07:37:14.651Z,49.75
2018-12-23T07:37:51.311Z,49.69
2018-12-23T07:38:27.946Z,49.65
2018-12-23T07:39:24.633Z,49.67
2018-12-23T07:40:01.502Z,49.50
2018-12-23T07:41:58.939Z,49.08
2018-12-23T07:42:35.587Z,49.29
2018-12-23T07:43:31.910Z,49.04
2018-12-23T07:44:08.697Z,49.16
2018-12-23T07:44:48.368Z,49.73
2018-12-23T07:45:43.095Z,49.85
2018-12-23T07:46:19.857Z,50.19
2018-12-23T07:46:56.707Z,49.85
2018-12-23T07:50:25.078Z,50.62
2018-12-23T07:51:21.665Z,50.06
2018-12-23T07:51:58.425Z,49.80
2018-12-23T07:52:35.130Z,50.00
2018-12-23T07:53:11.732Z,49.97
2018-12-23T07:53:48.288Z,49.88
2018-12-23T07:54:25.008Z,49.81
2018-12-23T07:55:01.833Z,49.07
2018-12-23T07:56:19.584Z,48.50
2018-12-23T07:58:30.759Z,48.34
2018-12-23T08:00:44.309Z,49.78
2018-12-23T08:01:31.037Z,48.54
2018-12-23T08:03:16.387Z,48.95
2018-12-23T08:04:31.224Z,49.88
2018-12-23T08:05:25.987Z,50.05
2018-12-23T08:06:02.824Z,49.91
2018-12-23T08:06:39.621Z,49.37
2018-12-23T08:08:50.966Z,48.36
2018-12-23T08:09:27.716Z,48.13
2018-12-23T08:10:04.366Z,48.54
2018-12-23T08:10:41.054Z,48.40
2018-12-23T08:14:36.722Z,48.87
2018-12-23T08:15:13.221Z,49.40
2018-12-23T08:15:49.782Z,49.39
2018-12-23T08:17:04.667Z,49.42
2018-12-23T08:17:51.322Z,49.46
2018-12-23T08:18:28.186Z,49.42
2018-12-23T08:19:43.100Z,49.61
2018-12-23T08:20:51.876Z,49.79
2018-12-23T08:21:28.473Z,50.07
2018-12-23T08:22:05.171Z,49.98
2018-12-23T08:22:41.931Z,50.30
2018-12-23T08:24:57.235Z,50.50
2018-12-23T08:25:44.110Z,50.88
2018-12-23T08:26:20.810Z,50.59
2018-12-23T08:28:12.728Z,50.65
2018-12-23T08:28:49.410Z,50.46
2018-12-23T08:31:10.682Z,50.50
2018-12-23T08:31:57.352Z,50.57
2018-12-23T08:32:44.184Z,50.92
2018-12-23T08:33:39.356Z,51.10
2018-12-23T08:34:15.958Z,51.19
2018-12-23T08:35:10.777Z,51.32
2018-12-23T08:35:49.898Z,51.22
2018-12-23T08:37:04.691Z,50.91
2018-12-23T08:37:44.701Z,50.53
2018-12-23T08:38:58.158Z,49.79
2018-12-23T08:39:36.715Z,50.07
2018-12-23T08:40:13.344Z,50.63
2018-12-23T08:43:59.727Z,51.55
2018-12-23T08:46:19.768Z,52.42
2018-12-23T08:46:56.435Z,52.56
2018-12-23T08:47:51.743Z,52.91
2018-12-23T08:48:29.873Z,52.84
2018-12-23T08:49:06.503Z,52.74
2018-12-23T08:49:43.195Z,52.98
2018-12-23T08:50:19.962Z,53.28
2018-12-23T08:50:56.677Z,53.03
2018-12-23T08:53:11.536Z,52.67
2018-12-23T08:53:48.323Z,53.01
2018-12-23T08:57:27.852Z,52.78
2018-12-23T08:58:33.905Z,53.21
2018-12-23T08:59:20.719Z,53.16
2018-12-23T08:59:57.465Z,52.84
2018-12-23T09:00:34.293Z,52.85
2018-12-23T09:01:10.984Z,52.34
2018-12-23T09:01:47.930Z,52.37
2018-12-23T09:02:42.858Z,52.38
2018-12-23T09:04:35.957Z,51.62
2018-12-23T09:05:12.600Z,51.24
2018-12-23T09:05:51.506Z,51.13
2018-12-23T09:06:57.759Z,51.10
2018-12-23T09:07:52.850Z,51.14
2018-12-23T09:08:22.820Z,51.53
2018-12-23T09:09:18.064Z,51.82
2018-12-23T09:09:54.894Z,51.82
2018-12-23T09:11:59.378Z,52.06
2018-12-23T09:12:36.036Z,52.21
2018-12-23T09:13:12.615Z,52.46
2018-12-23T09:13:49.303Z,52.57
2018-12-23T09:14:29.980Z,52.34
2018-12-23T09:15:44.967Z,52.34
2018-12-23T09:16:59.896Z,52.48
2018-12-23T09:17:49.596Z,52.52
2018-12-23T09:20:04.437Z,52.63
2018-12-23T09:20:41.203Z,52.51
2018-12-23T09:21:17.791Z,52.55
2018-12-23T09:21:54.425Z,52.94
2018-12-23T09:22:31.176Z,53.15
2018-12-23T09:23:07.998Z,53.27
2018-12-23T09:23:45.380Z,53.46
2018-12-23T09:25:00.405Z,53.39
2018-12-23T09:26:15.505Z,53.29
2018-12-23T09:26:52.186Z,53.41
2018-12-23T09:27:28.791Z,53.55
2018-12-23T09:28:05.292Z,53.54
2018-12-23T09:28:41.836Z,53.66
2018-12-23T09:29:18.396Z,54.00
2018-12-23T09:29:54.965Z,54.20
2018-12-23T09:31:08.394Z,54.42
2018-12-23T09:31:44.890Z,54.48
2018-12-23T09:32:59.926Z,54.65
2018-12-23T09:33:46.727Z,54.70
2018-12-23T09:34:23.468Z,54.93
2018-12-23T09:35:00.082Z,55.17
2018-12-23T09:36:15.017Z,54.49
2018-12-23T09:37:10.040Z,54.57
2018-12-23T09:38:06.642Z,54.59
2018-12-23T09:38:43.246Z,54.57
2018-12-23T09:39:19.908Z,54.68
2018-12-23T09:39:57.568Z,54.81
2018-12-23T09:42:17.604Z,55.65
2018-12-23T09:44:50.747Z,56.03
2018-12-23T09:45:27.466Z,56.24
2018-12-23T09:46:04.170Z,56.12
2018-12-23T09:46:40.723Z,56.26
2018-12-23T09:47:34.875Z,56.07
2018-12-23T09:47:55.741Z,56.07
2018-12-23T09:50:11.607Z,55.58
2018-12-23T09:50:58.501Z,55.68
2018-12-23T09:51:35.251Z,55.45
2018-12-23T09:52:11.820Z,55.43
2018-12-23T09:52:48.382Z,55.48
2018-12-23T09:53:45.045Z,55.83
2018-12-23T09:54:51.629Z,55.72
2018-12-23T09:56:05.056Z,55.75
2018-12-23T09:56:41.779Z,55.11
2018-12-23T09:57:56.674Z,55.09
2018-12-23T10:00:27.881Z,54.76
2018-12-23T10:01:04.569Z,54.90
2018-12-23T10:02:19.494Z,54.85
2018-12-23T10:04:23.509Z,54.84
2018-12-23T10:06:15.566Z,55.51
2018-12-23T10:11:12.847Z,56.47
2018-12-23T10:11:49.428Z,56.70
2018-12-23T10:12:26.023Z,56.79
2018-12-23T10:13:02.621Z,57.02
2018-12-23T10:14:10.843Z,57.09
2018-12-23T10:14:47.627Z,57.20
2018-12-23T10:15:24.115Z,56.65
2018-12-23T10:16:00.667Z,56.95
2018-12-23T10:16:57.330Z,57.08
2018-12-23T10:17:34.012Z,57.12
2018-12-23T10:18:10.585Z,57.31
2018-12-23T10:19:25.585Z,57.56
2018-12-23T10:20:02.185Z,57.22
2018-12-23T10:20:41.780Z,57.22
2018-12-23T10:21:18.492Z,57.56
2018-12-23T10:22:15.119Z,57.69
2018-12-23T10:23:01.928Z,58.02
2018-12-23T10:23:38.639Z,58.02
2018-12-23T10:26:09.847Z,58.23
2018-12-23T10:27:05.413Z,57.35
2018-12-23T10:27:41.893Z,58.06
2018-12-23T10:28:18.608Z,58.14
2018-12-23T10:28:55.144Z,58.23
2018-12-23T10:29:31.732Z,58.84
2018-12-23T10:30:11.050Z,59.50
2018-12-23T10:32:21.117Z,59.70
2018-12-23T10:32:57.631Z,59.75
2018-12-23T10:34:11.080Z,60.12
2018-12-23T10:35:26.138Z,59.89
2018-12-23T10:36:31.057Z,59.89
2018-12-23T10:37:17.624Z,59.79
2018-12-23T10:38:18.462Z,59.79
2018-12-23T10:39:32.163Z,59.23
2018-12-23T10:40:47.201Z,58.76
2018-12-23T10:42:02.256Z,58.72
2018-12-23T10:42:48.990Z,57.27
2018-12-23T10:43:35.687Z,57.01
2018-12-23T10:46:06.810Z,56.96
2018-12-23T10:47:11.683Z,56.96
2018-12-23T10:47:58.343Z,57.30
2018-12-23T10:48:44.950Z,57.32
2018-12-23T10:49:31.538Z,57.18
2018-12-23T10:50:18.023Z,57.21
2018-12-23T10:51:04.533Z,57.09
2018-12-23T10:51:41.152Z,57.06
2018-12-23T10:52:17.871Z,56.81
2018-12-23T10:53:31.242Z,56.81
2018-12-23T10:54:18.255Z,56.33
2018-12-23T10:55:04.890Z,56.12
2018-12-23T10:56:01.557Z,56.94
2018-12-23T10:56:56.364Z,57.32
2018-12-23T10:57:42.898Z,58.12
2018-12-23T10:58:19.557Z,58.12
2018-12-23T10:58:56.200Z,58.07
2018-12-23T10:59:51.026Z,58.31
2018-12-23T11:00:37.604Z,58.37
2018-12-23T11:01:24.164Z,58.37
2018-12-23T11:02:00.834Z,58.37
2018-12-23T11:02:37.532Z,58.75
2018-12-23T11:03:14.125Z,58.76
2018-12-23T11:04:09.006Z,59.05
2018-12-23T11:04:45.788Z,59.05
2018-12-23T11:05:22.227Z,58.87
2018-12-23T11:05:58.977Z,59.14
2018-12-23T11:06:35.658Z,58.95
2018-12-23T11:07:12.273Z,59.04
2018-12-23T11:07:48.948Z,59.04
2018-12-23T11:09:51.062Z,59.15
2018-12-23T11:12:03.945Z,59.20
2018-12-23T11:14:26.193Z,59.40
2018-12-23T11:15:05.503Z,59.40
2018-12-23T11:17:17.450Z,58.49
2018-12-23T11:17:54.128Z,58.55
2018-12-23T11:18:48.964Z,58.96
2018-12-23T11:19:25.467Z,59.00
2018-12-23T11:20:20.421Z,59.16
2018-12-23T11:20:56.955Z,59.36
2018-12-23T11:21:33.657Z,59.36
2018-12-23T11:23:16.934Z,59.53
2018-12-23T11:23:53.439Z,59.67
2018-12-23T11:25:08.382Z,59.54
2018-12-23T11:25:45.025Z,59.69
2018-12-23T11:26:21.738Z,59.69
2018-12-23T11:27:00.994Z,59.91
2018-12-23T11:27:55.839Z,60.13
2018-12-23T11:28:42.850Z,60.01
2018-12-23T11:29:29.623Z,59.95
2018-12-23T11:30:16.289Z,60.73
2018-12-23T11:30:52.920Z,60.73
2018-12-23T11:32:07.875Z,60.62
2018-12-23T11:32:44.444Z,61.47
2018-12-23T11:34:55.965Z,60.86
2018-12-23T11:35:33.600Z,59.98
2018-12-23T11:37:44.638Z,60.63
2018-12-23T11:38:51.078Z,60.63
2018-12-23T11:39:38.174Z,60.44
2018-12-23T11:40:14.794Z,60.68
2018-12-23T11:41:11.621Z,60.93
2018-12-23T11:41:48.372Z,60.93
2018-12-23T11:42:43.184Z,60.85
2018-12-23T11:43:29.923Z,61.08
2018-12-23T11:44:06.591Z,61.16
2018-12-23T11:44:43.230Z,61.16
2018-12-23T11:46:46.187Z,61.27
2018-12-23T11:47:40.975Z,61.27
2018-12-23T11:48:19.822Z,60.04
2018-12-23T11:48:56.210Z,61.19
2018-12-23T11:49:50.898Z,61.11
2018-12-23T11:50:27.489Z,61.11
2018-12-23T11:51:22.420Z,61.58
2018-12-23T11:51:59.259Z,61.58
2018-12-23T11:52:35.912Z,61.61
2018-12-23T11:53:30.737Z,61.69
2018-12-23T11:54:07.361Z,61.69
2018-12-23T11:55:02.210Z,62.07
2018-12-23T11:55:38.945Z,62.06
2018-12-23T11:56:15.685Z,62.06
2018-12-23T11:57:30.665Z,62.84
2018-12-23T11:58:07.341Z,62.84
2018-12-23T11:58:44.053Z,63.02
2018-12-23T11:59:20.940Z,63.02
2018-12-23T12:00:35.856Z,62.81
2018-12-23T12:01:24.096Z,62.93
2018-12-23T12:02:00.646Z,63.66
2018-12-23T12:02:55.716Z,63.50
2018-12-23T12:03:32.439Z,63.50
2018-12-23T12:04:09.244Z,63.53
2018-12-23T12:04:45.850Z,63.69
2018-12-23T12:05:40.695Z,64.47
2018-12-23T12:06:17.361Z,64.47
2018-12-23T12:06:53.829Z,64.27
2018-12-23T12:08:08.759Z,64.33
2018-12-23T12:08:48.350Z,64.27
2018-12-23T12:09:25.124Z,64.21
2018-12-23T12:10:19.948Z,64.28
2018-12-23T12:11:16.371Z,64.28
2018-12-23T12:12:31.282Z,64.17
2018-12-23T12:13:46.233Z,64.17
2018-12-23T12:14:24.507Z,63.60
2018-12-23T12:16:38.877Z,63.86
2018-12-23T12:17:25.791Z,64.16
2018-12-23T12:18:02.418Z,64.16
2018-12-23T12:19:17.318Z,63.65
2018-12-23T12:20:12.181Z,63.27
2018-12-23T12:20:48.748Z,63.27
2018-12-23T12:21:25.457Z,63.68
2018-12-23T12:22:02.125Z,63.75
2018-12-23T12:22:38.925Z,63.83
2018-12-23T12:23:15.460Z,63.96
2018-12-23T12:24:30.611Z,63.98
2018-12-23T12:25:28.590Z,64.42
2018-12-23T12:27:11.657Z,64.32
2018-12-23T12:27:48.206Z,64.67
2018-12-23T12:28:24.792Z,64.80
2018-12-23T12:30:37.775Z,65.07
2018-12-23T12:31:24.852Z,64.88
2018-12-23T12:33:39.826Z,64.93
2018-12-23T12:34:16.458Z,64.97
2018-12-23T12:34:53.191Z,65.09
2018-12-23T12:35:29.700Z,65.10
2018-12-23T12:36:34.586Z,65.00
2018-12-23T12:37:11.283Z,65.00
2018-12-23T12:37:48.017Z,65.37
2018-12-23T12:38:24.691Z,65.25